Terminal Aerodrome Forecast
Issued by NWS

Home | Current Version | Previous Version | Text Only | Print | Product List | Glossary On
Versions: 1 2 3 4 5 6 7 8 9 10 11 12 13 14 15 16 17 18 19 20 21 22 23
000
FTUS44 KLZK 260500
TAFHOT
TAF
KHOT 260534Z 2606/2706 30004KT P6SM SKC
     FM261200 36007KT P6SM SCT030
     FM261500 02008KT P6SM BKN030
     FM261800 05007KT P6SM BKN035=

USA.gov is the U.S. government's official web portal to all federal, state and local government web resources and services.